メインページ
METAR-TAF:

METAR-TAF

空港 :

ウィーン, オーストリア

ウィーン国際空港

緯度: 48-07N, 経度: 016-34E, 海抜: 183m

現時点の気象観測

当レポートは31分前の11:20(UTC)に作成
西/北西の風 7kt、西/南西から北/北西の間で変化する
気温 15°C
湿度 94%
気圧 1018 hPa
視程: 7000m
高度1200ftの雲はほとんどない
高度2500ftの雲はほとんどない, 積乱雲.
高度2800ftの千切れ雲あり
高度3500ftの曇り
弱いにわか雨, 近辺で激しい雷雨

METAR: LOWW 241120Z 29007KT 250V330 7000 -SHRA VCTS FEW012 FEW025CB BKN028 OVC035 15/14 Q1018 BECMG TL1140 NSW

時間: 13:51 (11:51 UTC)

予報

当レポートは36分前の11:15(UTC)に作成
予報は24日の 12時(UTC)から 25日の 18時(UTC)まで有効
北西の風 14kt
視程10km以上
高度3000ftの雲はほとんどない
高度5000ftの雲は散在している
高度25000ftの千切れ雲あり
24日の 12時(UTC)から 24日の 17時(UTC)まで一時的に
北西の風 20kt、最大30ktの突風を伴う
25日の 03時(UTC)から 25日の 08時(UTC)まで一時的に
北西の風 15kt、最大25ktの突風を伴う
高度5000ftの千切れ雲あり
弱いにわか雨
25日の 08時(UTC)から 25日の 12時(UTC)まで一時的に
北/北西の風 15kt、最大25ktの突風を伴う

TAF: LOWW 241115Z 2412/2518 31014KT 9999 FEW030 SCT050 BKN250 TX21/2413Z TN12/2503Z TEMPO 2412/2417 32020G30KT TEMPO 2503/2508 32015G25KT -SHRA BKN050 TEMPO 2508/2512 34015G25KT

4,000以上の空港の気象観測と天気予報(METAR報とTAF報)

利用可能な観測所は地図上に黄色い丸と赤い丸で示す。

丸の上にカーソルを重ねると観測所名を参照できる。

次にクリックすると気象観測と天気予報を参照できる。

マップの切り替え:黒色「×」印の緑ボタンをクリックして拡大、「-」印の緑ボタンをクリックして縮小、緑色の三角印をクリックして隣りの地図に切り替え


METAR-TAF: